createdAt,value
2023-03-05T00:04:34.913Z,2.28
2023-03-05T00:09:36.505Z,2.35
2023-03-05T00:14:38.263Z,2.26
2023-03-05T00:19:40.014Z,2.16
2023-03-05T00:24:41.766Z,2.25
2023-03-05T00:29:43.475Z,2.32
2023-03-05T00:34:45.187Z,2.24
2023-03-05T00:39:46.813Z,2.25
2023-03-05T00:44:48.405Z,2.07
2023-03-05T00:49:50.316Z,1.96
2023-03-05T00:54:51.957Z,1.90
2023-03-05T00:59:53.652Z,2.05
2023-03-05T01:04:55.707Z,2.02
2023-03-05T01:09:57.393Z,1.84
2023-03-05T01:14:59.144Z,1.82
2023-03-05T01:20:00.779Z,2.00
2023-03-05T01:25:02.582Z,1.79
2023-03-05T01:30:05.205Z,1.80
2023-03-05T01:35:08.478Z,1.81
2023-03-05T01:40:12.344Z,1.66
2023-03-05T01:45:17.155Z,1.66
2023-03-05T01:50:22.998Z,1.63
2023-03-05T01:55:26.780Z,1.46
2023-03-05T02:00:35.684Z,1.54
2023-03-05T02:05:41.102Z,1.58
2023-03-05T02:10:46.051Z,1.70
2023-03-05T02:15:49.865Z,1.69
2023-03-05T02:20:56.336Z,1.69
2023-03-05T02:25:58.086Z,1.55
2023-03-05T02:30:59.843Z,1.55
2023-03-05T02:36:01.503Z,1.52
2023-03-05T02:41:03.524Z,1.61
2023-03-05T02:46:05.848Z,1.55
2023-03-05T02:51:08.590Z,1.42
2023-03-05T02:56:11.016Z,1.43
2023-03-05T03:01:12.845Z,1.47
2023-03-05T03:06:14.607Z,1.39
2023-03-05T03:11:16.269Z,1.23
2023-03-05T03:16:18.124Z,1.46
2023-03-05T03:21:22.260Z,1.41
2023-03-05T03:26:24.040Z,1.32
2023-03-05T03:31:25.770Z,1.45
2023-03-05T03:36:27.371Z,1.36
2023-03-05T03:41:29.028Z,1.51
2023-03-05T03:46:31.086Z,1.36
2023-03-05T03:51:33.105Z,1.30
2023-03-05T03:56:34.717Z,1.33
2023-03-05T04:01:36.737Z,1.32
2023-03-05T04:06:38.974Z,1.17
2023-03-05T04:11:40.681Z,1.17
2023-03-05T04:16:42.352Z,1.27
2023-03-05T04:21:44.027Z,1.09
2023-03-05T04:26:45.688Z,1.24
2023-03-05T04:31:47.360Z,1.30
2023-03-05T04:36:49.051Z,1.21
2023-03-05T04:41:50.695Z,1.09
2023-03-05T04:46:52.684Z,1.19
2023-03-05T04:51:54.493Z,1.16
2023-03-05T04:56:56.092Z,1.13
2023-03-05T05:01:57.974Z,0.99
2023-03-05T05:06:59.706Z,1.07
2023-03-05T05:12:01.580Z,0.93
2023-03-05T05:17:05.187Z,1.04
2023-03-05T05:22:07.639Z,0.89
2023-03-05T05:27:09.328Z,0.89
2023-03-05T05:32:11.049Z,0.95
2023-03-05T05:37:12.850Z,1.01
2023-03-05T05:42:14.609Z,1.03
2023-03-05T05:47:18.098Z,0.98
2023-03-05T05:52:19.735Z,1.09
2023-03-05T05:57:21.436Z,1.12
2023-03-05T06:02:23.384Z,1.18
2023-03-05T06:07:25.948Z,1.07
2023-03-05T06:12:28.265Z,1.05
2023-03-05T06:17:31.043Z,1.13
2023-03-05T06:22:37.394Z,1.10
2023-03-05T06:27:39.384Z,1.31
2023-03-05T06:32:41.252Z,1.29
2023-03-05T06:37:43.208Z,1.35
2023-03-05T06:42:45.172Z,1.38
2023-03-05T06:47:46.948Z,1.38
2023-03-05T06:52:51.782Z,1.52
2023-03-05T06:57:53.568Z,1.25
2023-03-05T07:02:55.301Z,1.36
2023-03-05T07:07:57.042Z,1.22
2023-03-05T07:12:59.038Z,1.36
2023-03-05T07:18:01.185Z,1.29
2023-03-05T07:23:04.274Z,1.30
2023-03-05T07:28:07.130Z,1.28
2023-03-05T07:33:08.999Z,1.36
2023-03-05T07:38:10.801Z,1.43
2023-03-05T07:43:12.611Z,1.40
2023-03-05T07:48:17.510Z,1.44
2023-03-05T07:53:19.354Z,1.57
2023-03-05T07:58:21.131Z,1.58
2023-03-05T08:03:22.885Z,1.73
2023-03-05T08:08:24.618Z,1.58
2023-03-05T08:13:26.405Z,1.48
2023-03-05T08:18:28.595Z,1.37
2023-03-05T08:23:30.820Z,1.62
2023-03-05T08:28:34.389Z,1.85
2023-03-05T08:33:37.133Z,1.84
2023-03-05T08:38:39.599Z,2.03
2023-03-05T08:43:41.739Z,2.28
2023-03-05T08:48:43.919Z,2.69
2023-03-05T08:53:46.775Z,2.62
2023-03-05T08:58:48.661Z,2.39
2023-03-05T09:03:50.620Z,1.96
2023-03-05T09:08:52.760Z,1.87
2023-03-05T09:13:54.700Z,1.66
2023-03-05T09:18:56.719Z,1.80
2023-03-05T09:24:00.629Z,1.63
2023-03-05T09:29:02.578Z,1.59
2023-03-05T09:34:05.548Z,1.70
2023-03-05T09:39:07.407Z,1.89
2023-03-05T09:44:14.949Z,2.19
2023-03-05T09:50:01.448Z,2.33
2023-03-05T09:55:05.125Z,2.68
2023-03-05T10:00:21.142Z,3.05
2023-03-05T10:05:31.403Z,3.26
2023-03-05T10:10:40.946Z,3.53
2023-03-05T10:16:13.513Z,3.93
2023-03-05T10:21:45.478Z,4.22
2023-03-05T10:27:02.694Z,4.49
2023-03-05T10:32:20.632Z,4.67
2023-03-05T10:37:48.794Z,4.40
2023-03-05T10:43:02.246Z,4.23
2023-03-05T10:48:25.488Z,3.97
2023-03-05T10:53:34.087Z,3.76
2023-03-05T10:58:35.916Z,3.51
2023-03-05T11:03:59.360Z,3.41
2023-03-05T11:09:32.493Z,3.27
2023-03-05T11:14:38.671Z,3.37
2023-03-05T11:19:40.571Z,3.40
2023-03-05T11:24:43.453Z,3.13
2023-03-05T11:29:49.404Z,3.22
2023-03-05T11:34:51.483Z,3.08
2023-03-05T11:40:27.842Z,2.96
2023-03-05T11:45:31.937Z,3.14
2023-03-05T11:50:35.225Z,2.93
2023-03-05T11:55:45.295Z,2.96
2023-03-05T12:01:22.256Z,2.99
2023-03-05T12:06:36.120Z,2.76
2023-03-05T12:11:38.584Z,3.05
2023-03-05T12:16:56.832Z,3.00
2023-03-05T12:21:59.563Z,3.17
2023-03-05T12:27:03.976Z,3.30
2023-03-05T12:32:26.013Z,3.40
2023-03-05T12:37:28.017Z,3.40
2023-03-05T12:42:30.417Z,3.29
2023-03-05T12:47:32.577Z,3.13
2023-03-05T12:52:34.871Z,3.00
2023-03-05T12:57:37.708Z,2.90
2023-03-05T13:02:47.555Z,2.98
2023-03-05T13:07:51.191Z,3.14
2023-03-05T13:12:56.085Z,3.27
2023-03-05T13:18:02.280Z,3.46
2023-03-05T13:23:05.404Z,3.29
2023-03-05T13:28:13.958Z,3.22
2023-03-05T13:33:20.016Z,3.37
2023-03-05T13:38:45.331Z,3.24
2023-03-05T13:43:57.056Z,3.23
2023-03-05T13:49:24.162Z,3.18
2023-03-05T13:54:27.287Z,3.21
2023-03-05T13:59:31.858Z,3.28
2023-03-05T14:04:41.591Z,3.11
2023-03-05T14:09:47.788Z,3.51
2023-03-05T14:14:50.041Z,3.47
2023-03-05T14:19:52.460Z,3.07
2023-03-05T14:24:55.049Z,2.24
2023-03-05T14:29:57.931Z,2.21
2023-03-05T14:35:02.365Z,2.01
2023-03-05T14:40:22.411Z,2.20
2023-03-05T14:45:27.670Z,2.12
2023-03-05T14:50:39.224Z,2.10
2023-03-05T14:55:43.737Z,2.14
2023-03-05T15:00:46.129Z,2.22
2023-03-05T15:05:54.183Z,1.92
2023-03-05T15:10:56.925Z,1.73
2023-03-05T15:15:59.132Z,1.83
2023-03-05T15:21:02.443Z,1.97
2023-03-05T15:26:07.357Z,1.92
2023-03-05T15:31:09.784Z,2.03
2023-03-05T15:36:11.585Z,2.15
2023-03-05T15:41:13.535Z,2.16
2023-03-05T15:46:15.269Z,2.23
2023-03-05T15:51:17.774Z,2.40
2023-03-05T15:56:19.797Z,2.22
2023-03-05T16:01:23.452Z,2.30
2023-03-05T16:06:26.018Z,2.20
2023-03-05T16:11:28.664Z,2.14
2023-03-05T16:16:32.276Z,2.07
2023-03-05T16:21:34.213Z,2.34
2023-03-05T16:26:38.036Z,2.36
2023-03-05T16:31:41.479Z,2.12
2023-03-05T16:36:52.660Z,2.36
2023-03-05T16:41:54.489Z,2.26
2023-03-05T16:46:56.666Z,2.23
2023-03-05T16:52:01.323Z,2.28
2023-03-05T16:57:09.021Z,2.31
2023-03-05T17:02:13.273Z,2.26
2023-03-05T17:07:15.080Z,2.28
2023-03-05T17:12:16.950Z,2.35
2023-03-05T17:17:18.801Z,2.59
2023-03-05T17:22:22.313Z,2.45
2023-03-05T17:27:23.984Z,2.34
2023-03-05T17:32:26.111Z,2.43
2023-03-05T17:37:28.034Z,2.42
2023-03-05T17:42:29.730Z,2.30
2023-03-05T17:47:34.817Z,2.09
2023-03-05T17:52:41.184Z,1.87
2023-03-05T17:57:47.430Z,2.11
2023-03-05T18:02:49.661Z,2.18
2023-03-05T18:07:52.164Z,2.25
2023-03-05T18:12:54.287Z,2.34
2023-03-05T18:17:56.444Z,2.14
2023-03-05T18:23:00.343Z,2.24
2023-03-05T18:28:07.558Z,2.17
2023-03-05T18:33:13.393Z,2.02
2023-03-05T18:38:15.424Z,1.79
2023-03-05T18:43:20.520Z,2.06
2023-03-05T18:48:22.950Z,1.71
2023-03-05T18:53:24.737Z,1.51
2023-03-05T18:58:26.416Z,1.47
2023-03-05T19:03:28.077Z,1.58
2023-03-05T19:08:29.692Z,1.40
2023-03-05T19:13:35.084Z,1.45
2023-03-05T19:18:43.835Z,1.47
2023-03-05T19:23:49.689Z,1.43
2023-03-05T19:28:51.558Z,1.79
2023-03-05T19:33:54.527Z,1.70
2023-03-05T19:38:56.296Z,1.72
2023-03-05T19:43:58.088Z,1.51
2023-03-05T19:48:59.986Z,1.71
2023-03-05T19:54:04.057Z,1.86
2023-03-05T19:59:06.378Z,1.78
2023-03-05T20:04:08.143Z,1.67
2023-03-05T20:09:10.638Z,1.53
2023-03-05T20:14:19.458Z,1.88
2023-03-05T20:19:21.909Z,1.68
2023-03-05T20:24:23.588Z,1.68
2023-03-05T20:29:25.500Z,1.78
2023-03-05T20:34:27.247Z,1.63
2023-03-05T20:39:28.963Z,1.61
2023-03-05T20:44:30.652Z,1.63
2023-03-05T20:49:32.330Z,1.43
2023-03-05T20:54:34.022Z,1.45
2023-03-05T20:59:36.807Z,1.80
2023-03-05T21:04:38.469Z,1.62
2023-03-05T21:09:40.694Z,1.51
2023-03-05T21:14:42.334Z,1.72
2023-03-05T21:19:44.081Z,1.81
2023-03-05T21:25:06.028Z,1.99
2023-03-05T21:30:09.656Z,1.82
2023-03-05T21:35:22.727Z,1.87
2023-03-05T21:40:25.140Z,2.06
2023-03-05T21:45:28.794Z,2.08
2023-03-05T21:50:33.334Z,1.98
2023-03-05T21:55:46.316Z,1.96
2023-03-05T22:00:48.068Z,1.96
2023-03-05T22:05:49.751Z,1.93
2023-03-05T22:10:52.117Z,1.95
2023-03-05T22:15:55.834Z,2.07
2023-03-05T22:20:59.483Z,2.05
2023-03-05T22:26:04.834Z,2.09
2023-03-05T22:31:06.567Z,2.03
2023-03-05T22:36:10.771Z,2.01
2023-03-05T22:41:14.886Z,2.10
2023-03-05T22:46:22.534Z,1.95
2023-03-05T22:51:24.708Z,2.03
2023-03-05T22:56:26.525Z,2.09
2023-03-05T23:01:28.174Z,1.97
2023-03-05T23:06:29.846Z,2.08
2023-03-05T23:11:31.540Z,2.05
2023-03-05T23:16:33.154Z,2.07
2023-03-05T23:21:34.809Z,2.03
2023-03-05T23:26:36.481Z,2.10
2023-03-05T23:31:38.200Z,2.07
2023-03-05T23:36:39.857Z,2.10
2023-03-05T23:41:41.463Z,2.02
2023-03-05T23:46:43.153Z,2.05
2023-03-05T23:51:44.847Z,2.02
2023-03-05T23:56:46.539Z,1.92
